< Cyclone 197513 1975 Season Cyclone 197515 >
Cyclone 197514 (BEVERLEY)
General InformationTrack Information on Google Maps || ResourceGoogle EarthGE AnimationAtom FeedGeoJSON
Detalied Best Track (Time Zone = UTC)
Year Month Day Hour Lat. Long. Pressure (hPa) Wind (kt) Class Image Chart
1975 3 22 01 -12.6 115.9 1006 0 0 -- --
1975 3 22 04 -12.6 115.9 1006 0 0 -- --
1975 3 22 07 -12.7 116.0 1005 0 0 -- --
1975 3 22 10 -12.7 116.0 1004 0 0 -- --
1975 3 22 13 -12.8 116.0 1004 0 0 -- --
1975 3 22 16 -12.9 116.0 1004 0 0 -- --
1975 3 22 19 -13.0 116.0 1003 0 0 -- --
1975 3 22 22 -13.0 116.0 1003 0 0 -- --
1975 3 23 01 -13.1 116.0 1003 0 0 -- --
1975 3 23 04 -13.1 116.0 1003 0 0 -- --
1975 3 23 07 -13.2 116.0 1003 0 0 -- --
1975 3 23 10 -13.3 116.0 1003 0 0 -- --
1975 3 23 13 -13.4 116.0 1003 0 0 -- --
1975 3 23 16 -13.5 116.0 1003 0 0 -- --
1975 3 23 19 -13.7 116.0 1002 0 0 -- --
1975 3 23 22 -13.9 116.0 1002 0 0 -- --
1975 3 24 01 -14.0 116.0 1002 0 0 -- --
1975 3 24 04 -14.2 116.0 1001 0 0 -- --
1975 3 24 07 -14.5 116.0 999 0 0 -- --
1975 3 24 10 -14.7 116.0 998 0 0 -- --
1975 3 24 13 -14.9 116.0 996 0 0 -- --
1975 3 24 16 -15.1 116.0 994 0 0 -- --
1975 3 24 19 -15.4 116.0 991 0 0 -- --
1975 3 24 22 -15.6 115.9 989 0 0 -- --
1975 3 25 01 -15.9 115.9 988 0 0 -- --
1975 3 25 04 -16.1 115.9 986 0 0 -- --
1975 3 25 07 -16.3 115.9 983 0 0 -- --
1975 3 25 10 -16.5 115.8 980 0 0 -- --
1975 3 25 13 -16.6 115.8 977 0 0 -- --
1975 3 25 16 -16.8 115.8 973 0 0 -- --
1975 3 25 19 -16.9 115.7 970 0 0 -- --
1975 3 25 22 -17.1 115.7 967 0 0 -- --
1975 3 26 01 -17.2 115.6 964 0 0 -- --
1975 3 26 04 -17.4 115.5 962 0 0 -- --
1975 3 26 07 -17.5 115.4 960 0 0 -- --
1975 3 26 10 -17.4 115.3 957 0 0 -- --
1975 3 26 13 -17.9 115.1 954 0 0 -- --
1975 3 26 16 -17.9 114.8 950 0 0 -- --
1975 3 26 19 -18.0 114.6 947 0 0 -- --
1975 3 26 22 -18.1 114.3 944 0 0 -- --
1975 3 27 01 -18.1 114.0 942 0 0 -- --
1975 3 27 04 -18.2 113.8 940 0 0 -- --
1975 3 27 07 -18.3 113.7 938 0 0 -- --
1975 3 27 10 -18.4 113.5 937 0 0 -- --
1975 3 27 13 -18.5 113.4 936 0 0 -- --
1975 3 27 16 -18.5 113.2 934 0 0 -- --
1975 3 27 19 -18.5 112.9 932 0 0 -- --
1975 3 27 22 -18.4 112.7 930 0 0 -- --
1975 3 28 01 -18.3 112.6 929 0 0 -- --
1975 3 28 04 -18.2 112.4 930 0 0 -- --
1975 3 28 07 -18.2 112.2 931 0 0 -- --
1975 3 28 10 -18.3 111.9 933 0 0 -- --
1975 3 28 13 -18.5 111.7 935 0 0 -- --
1975 3 28 16 -18.5 111.4 937 0 0 -- --
1975 3 28 19 -18.4 111.2 939 0 0 -- --
1975 3 28 22 -18.3 111.0 940 0 0 -- --
1975 3 29 01 -18.2 110.6 942 0 0 -- --
1975 3 29 04 -18.4 110.6 944 0 0 -- --
1975 3 29 07 -18.5 110.7 946 0 0 -- --
1975 3 29 10 -18.6 110.8 948 0 0 -- --
1975 3 29 13 -18.8 111.0 951 0 0 -- --
1975 3 29 16 -18.9 111.2 954 0 0 -- --
1975 3 29 19 -19.0 111.3 958 0 0 -- --
1975 3 29 22 -19.1 111.4 961 0 0 -- --
1975 3 30 01 -19.2 111.5 964 0 0 -- --
1975 3 30 04 -19.5 111.8 966 0 0 -- --
1975 3 30 07 -19.9 112.3 966 0 0 -- --
1975 3 30 10 -20.2 112.6 966 0 0 -- --
1975 3 30 13 -20.5 112.8 967 0 0 -- --
1975 3 30 16 -21.0 113.2 968 0 0 -- --
1975 3 30 19 -21.4 113.5 969 0 0 -- --
1975 3 30 22 -21.9 113.8 969 0 0 -- --
1975 3 31 01 -22.6 113.9 970 0 0 -- --
1975 3 31 04 -23.3 114.1 970 0 0 -- --
1975 3 31 07 -23.9 114.3 972 0 0 -- --
1975 3 31 10 -24.7 114.6 973 0 0 -- --
1975 3 31 13 -25.7 114.8 974 0 0 -- --
1975 3 31 16 -26.9 114.7 975 0 0 -- --
1975 3 31 19 -27.7 115.0 980 0 0 -- --
1975 3 31 22 -28.3 115.4 987 0 0 -- --
1975 4 1 01 -29.0 115.9 994 0 0 -- --
1975 4 1 04 -30.4 116.6 995 0 0 -- --
1975 4 1 07 -31.4 117.5 996 0 0 -- --
1975 4 1 10 -32.0 117.9 997 0 0 -- --
1975 4 1 13 -32.7 118.1 997 0 0 -- --
1975 4 1 16 -33.5 118.3 996 0 0 -- --
1975 4 1 19 -34.1 118.7 995 0 0 -- --
1975 4 1 22 -34.8 119.2 994 0 0 -- --
1975 4 2 01 -35.6 120.3 994 0 0 -- --
1975 4 2 04 -36.1 121.3 994 0 0 -- --
1975 4 2 07 -36.5 122.1 993 0 0 -- --
1975 4 2 10 -37.0 123.0 993 0 0 -- --
1975 4 2 13 -37.5 123.8 993 0 0 -- --
1975 4 2 16 -38.2 124.7 993 0 0 -- --
1975 4 2 19 -38.9 125.6 992 0 0 -- --
1975 4 2 22 -39.9 126.7 992 0 0 -- --
1975 4 3 01 -40.9 128.0 992 0 0 -- --
< Cyclone 197513 1975 Season Cyclone 197515 >

Help